createdAt,value
2018-02-21T00:01:27.614Z,106.43
2018-02-21T00:03:56.030Z,98.57
2018-02-21T00:06:24.371Z,110.93
2018-02-21T00:08:52.722Z,96.28
2018-02-21T00:11:21.157Z,98.55
2018-02-21T00:13:49.542Z,99.68
2018-02-21T00:16:17.866Z,91.03
2018-02-21T00:18:46.221Z,108.93
2018-02-21T00:21:14.557Z,97.95
2018-02-21T00:23:42.946Z,107.68
2018-02-21T00:26:11.376Z,94.95
2018-02-21T00:28:39.798Z,100.65
2018-02-21T00:31:08.183Z,103.47
2018-02-21T00:33:36.538Z,100.38
2018-02-21T00:36:04.870Z,96.40
2018-02-21T00:38:33.221Z,93.40
2018-02-21T00:41:01.554Z,98.95
2018-02-21T00:43:29.963Z,84.60
2018-02-21T00:45:58.294Z,96.57
2018-02-21T00:48:26.649Z,88.55
2018-02-21T00:50:54.977Z,98.57
2018-02-21T00:53:23.334Z,98.60
2018-02-21T00:55:51.750Z,105.25
2018-02-21T00:58:20.110Z,99.78
2018-02-21T01:00:48.503Z,80.03
2018-02-21T01:03:16.877Z,77.90
2018-02-21T01:05:45.259Z,88.22
2018-02-21T01:08:13.614Z,91.55
2018-02-21T01:10:41.941Z,91.12
2018-02-21T01:13:10.385Z,87.07
2018-02-21T01:15:38.727Z,80.53
2018-02-21T01:18:07.138Z,89.72
2018-02-21T01:20:35.473Z,92.88
2018-02-21T01:23:03.822Z,89.90
2018-02-21T01:25:32.158Z,80.75
2018-02-21T01:28:00.550Z,93.22
2018-02-21T01:30:28.930Z,84.93
2018-02-21T01:32:57.278Z,79.47
2018-02-21T01:35:25.682Z,81.80
2018-02-21T01:37:54.039Z,81.15
2018-02-21T01:40:22.361Z,86.97
2018-02-21T01:42:50.718Z,82.45
2018-02-21T01:45:19.046Z,84.75
2018-02-21T01:47:47.466Z,88.50
2018-02-21T01:50:15.839Z,81.68
2018-02-21T01:52:44.174Z,89.32
2018-02-21T01:55:12.600Z,85.35
2018-02-21T01:57:40.974Z,88.55
2018-02-21T02:00:09.354Z,81.65
2018-02-21T02:02:37.686Z,84.60
2018-02-21T02:05:06.105Z,76.62
2018-02-21T02:07:34.446Z,89.25
2018-02-21T02:10:02.869Z,101.45
2018-02-21T02:12:31.211Z,86.80
2018-02-21T02:14:59.553Z,97.90
2018-02-21T02:17:27.994Z,100.15
2018-02-21T02:19:56.350Z,93.72
2018-02-21T02:22:24.750Z,97.70
2018-02-21T02:24:53.106Z,94.43
2018-02-21T02:27:21.506Z,97.35
2018-02-21T02:29:49.853Z,95.38
2018-02-21T02:32:18.261Z,109.65
2018-02-21T02:34:46.638Z,111.20
2018-02-21T02:37:14.978Z,106.70
2018-02-21T02:39:50.254Z,105.45
2018-02-21T02:42:18.594Z,101.03
2018-02-21T02:44:47.010Z,85.75
2018-02-21T02:47:15.338Z,88.90
2018-02-21T02:49:43.759Z,90.53
2018-02-21T02:52:12.189Z,93.28
2018-02-21T02:54:40.529Z,82.80
2018-02-21T02:57:08.898Z,80.45
2018-02-21T02:59:37.249Z,86.32
2018-02-21T03:02:05.646Z,83.70
2018-02-21T03:04:33.996Z,83.28
2018-02-21T03:07:02.399Z,96.60
2018-02-21T03:09:30.774Z,79.37
2018-02-21T03:11:59.156Z,88.72
2018-02-21T03:14:27.515Z,83.57
2018-02-21T03:16:55.910Z,77.30
2018-02-21T03:19:24.285Z,79.47
2018-02-21T03:21:52.613Z,79.75
2018-02-21T03:24:21.038Z,79.80
2018-02-21T03:26:49.413Z,84.43
2018-02-21T03:29:17.771Z,77.87
2018-02-21T03:31:46.101Z,71.05
2018-02-21T03:34:14.545Z,70.50
2018-02-21T03:36:42.884Z,80.18
2018-02-21T03:39:11.242Z,73.10
2018-02-21T03:41:39.566Z,68.32
2018-02-21T03:44:07.921Z,74.30
2018-02-21T03:46:36.249Z,81.43
2018-02-21T03:49:04.710Z,82.60
2018-02-21T03:51:33.056Z,84.40
2018-02-21T03:54:01.406Z,70.30
2018-02-21T03:56:29.769Z,76.45
2018-02-21T03:58:58.118Z,78.65
2018-02-21T04:01:26.489Z,74.28
2018-02-21T04:03:54.868Z,70.32
2018-02-21T04:06:23.245Z,88.72
2018-02-21T04:08:51.580Z,76.22
2018-02-21T04:11:19.934Z,84.82
2018-02-21T04:13:48.284Z,81.28
2018-02-21T04:16:16.630Z,81.80
2018-02-21T04:18:45.031Z,82.57
2018-02-21T04:21:13.387Z,82.15
2018-02-21T04:23:41.718Z,72.75
2018-02-21T04:26:10.071Z,71.95
2018-02-21T04:28:38.399Z,78.12
2018-02-21T04:31:06.753Z,91.87
2018-02-21T04:33:35.143Z,83.37
2018-02-21T04:36:03.493Z,82.10
2018-02-21T04:38:31.845Z,73.93
2018-02-21T04:41:00.197Z,72.25
2018-02-21T04:43:28.601Z,83.40
2018-02-21T04:45:56.967Z,68.53
2018-02-21T04:48:25.349Z,77.47
2018-02-21T04:50:53.733Z,64.28
2018-02-21T04:53:22.066Z,76.53
2018-02-21T04:59:02.769Z,73.43
2018-02-21T05:01:31.117Z,70.87
2018-02-21T05:03:59.450Z,69.85
2018-02-21T05:06:27.814Z,80.38
2018-02-21T05:08:56.137Z,65.50
2018-02-21T05:11:24.582Z,61.08
2018-02-21T05:13:52.959Z,66.75
2018-02-21T05:16:21.333Z,71.22
2018-02-21T05:18:49.674Z,61.42
2018-02-21T05:21:18.018Z,73.80
2018-02-21T05:23:46.361Z,80.87
2018-02-21T05:26:14.719Z,68.00
2018-02-21T05:28:43.045Z,68.90
2018-02-21T05:31:11.494Z,69.22
2018-02-21T05:33:39.874Z,70.03
2018-02-21T05:36:08.226Z,74.03
2018-02-21T05:38:36.629Z,72.28
2018-02-21T05:41:04.993Z,73.00
2018-02-21T05:43:33.385Z,71.83
2018-02-21T05:46:01.784Z,79.22
2018-02-21T05:48:30.097Z,82.10
2018-02-21T05:50:58.521Z,80.23
2018-02-21T05:53:26.890Z,74.95
2018-02-21T05:55:55.245Z,73.30
2018-02-21T05:58:23.671Z,72.90
2018-02-21T06:00:53.005Z,78.25
2018-02-21T06:03:21.422Z,68.90
2018-02-21T06:05:49.802Z,76.55
2018-02-21T06:08:18.134Z,74.50
2018-02-21T06:10:46.496Z,75.20
2018-02-21T06:13:14.933Z,64.77
2018-02-21T06:15:43.298Z,70.10
2018-02-21T06:18:11.692Z,75.13
2018-02-21T06:20:41.021Z,72.10
2018-02-21T06:23:09.570Z,80.57
2018-02-21T06:25:37.927Z,75.57
2018-02-21T06:28:07.475Z,76.77
2018-02-21T06:30:35.927Z,73.93
2018-02-21T06:33:04.265Z,80.10
2018-02-21T06:35:32.682Z,80.30
2018-02-21T06:38:01.071Z,71.10
2018-02-21T06:40:29.423Z,76.13
2018-02-21T06:42:57.775Z,79.83
2018-02-21T06:45:26.106Z,93.27
2018-02-21T06:47:54.462Z,86.27
2018-02-21T06:50:22.802Z,80.77
2018-02-21T06:52:51.162Z,76.60
2018-02-21T06:55:19.498Z,79.07
2018-02-21T06:57:47.849Z,73.13
2018-02-21T07:00:17.008Z,73.53
2018-02-21T07:02:45.593Z,77.30
2018-02-21T07:05:13.946Z,86.73
2018-02-21T07:07:42.405Z,71.00
2018-02-21T07:10:10.746Z,72.67
2018-02-21T07:12:39.107Z,76.37
2018-02-21T07:15:07.446Z,83.63
2018-02-21T07:17:35.811Z,77.32
2018-02-21T07:20:04.141Z,85.33
2018-02-21T07:22:32.505Z,69.87
2018-02-21T07:25:00.844Z,77.43
2018-02-21T07:27:29.223Z,80.40
2018-02-21T07:29:57.569Z,72.33
2018-02-21T07:32:26.932Z,70.37
2018-02-21T07:34:55.259Z,70.20
2018-02-21T07:37:23.618Z,67.23
2018-02-21T07:39:52.031Z,84.95
2018-02-21T07:42:20.405Z,73.40
2018-02-21T07:44:48.745Z,66.33
2018-02-21T07:47:17.738Z,71.65
2018-02-21T07:49:46.078Z,77.60
2018-02-21T07:52:14.428Z,79.60
2018-02-21T07:54:42.807Z,68.63
2018-02-21T07:57:11.162Z,69.20
2018-02-21T07:59:39.553Z,71.50
2018-02-21T08:02:07.918Z,67.57
2018-02-21T08:04:36.249Z,65.87
2018-02-21T08:07:05.402Z,66.57
2018-02-21T08:09:33.737Z,72.97
2018-02-21T08:12:02.172Z,68.80
2018-02-21T08:14:30.542Z,68.93
2018-02-21T08:16:58.922Z,80.50
2018-02-21T08:19:27.296Z,71.37
2018-02-21T08:21:55.670Z,77.47
2018-02-21T08:24:24.060Z,72.63
2018-02-21T08:26:52.410Z,69.10
2018-02-21T08:29:20.746Z,73.33
2018-02-21T08:31:49.107Z,71.67
2018-02-21T08:34:17.450Z,69.90
2018-02-21T08:36:45.802Z,70.10
2018-02-21T08:39:14.206Z,78.43
2018-02-21T08:41:42.562Z,63.23
2018-02-21T08:44:10.966Z,79.25
2018-02-21T08:46:39.345Z,83.13
2018-02-21T08:49:07.717Z,71.30
2018-02-21T08:51:36.054Z,70.30
2018-02-21T08:54:04.469Z,85.80
2018-02-21T08:56:32.811Z,84.37
2018-02-21T08:59:01.161Z,79.53
2018-02-21T09:01:29.494Z,81.93
2018-02-21T09:03:57.860Z,78.60
2018-02-21T09:06:26.258Z,83.22
2018-02-21T09:08:54.634Z,92.87
2018-02-21T09:11:23.010Z,69.83
2018-02-21T09:13:51.362Z,79.47
2018-02-21T09:16:19.693Z,80.33
2018-02-21T09:18:48.055Z,70.73
2018-02-21T09:21:16.390Z,75.68
2018-02-21T09:23:44.754Z,70.13
2018-02-21T09:26:13.166Z,75.25
2018-02-21T09:28:41.531Z,84.50
2018-02-21T09:31:09.865Z,80.30
2018-02-21T09:33:38.306Z,88.03
2018-02-21T09:36:06.642Z,84.50
2018-02-21T09:38:35.054Z,95.93
2018-02-21T09:41:03.389Z,88.22
2018-02-21T09:43:31.812Z,100.33
2018-02-21T09:46:00.146Z,101.73
2018-02-21T09:48:28.563Z,89.53
2018-02-21T09:50:56.942Z,88.90
2018-02-21T09:53:25.322Z,83.47
2018-02-21T09:55:53.642Z,90.83
2018-02-21T09:58:22.069Z,68.77
2018-02-21T10:00:50.399Z,72.00
2018-02-21T10:03:18.836Z,82.40
2018-02-21T10:05:47.209Z,79.77
2018-02-21T10:08:15.558Z,78.50
2018-02-21T10:10:44.010Z,73.37
2018-02-21T10:13:12.318Z,56.60
2018-02-21T10:15:40.648Z,71.77
2018-02-21T10:18:09.143Z,62.85
2018-02-21T10:20:37.467Z,69.73
2018-02-21T10:23:05.821Z,61.60
2018-02-21T10:25:34.217Z,62.53
2018-02-21T10:28:02.565Z,53.83
2018-02-21T10:30:30.894Z,64.20
2018-02-21T10:32:59.240Z,58.00
2018-02-21T10:35:27.578Z,61.63
2018-02-21T10:37:55.922Z,58.63
2018-02-21T10:40:24.249Z,60.70
2018-02-21T10:42:52.608Z,56.30
2018-02-21T10:45:20.938Z,62.47
2018-02-21T10:47:49.297Z,50.37
2018-02-21T10:50:17.629Z,53.85
2018-02-21T10:52:45.966Z,56.67
2018-02-21T10:55:14.317Z,58.70
2018-02-21T10:57:42.654Z,51.78
2018-02-21T11:00:11.002Z,50.50
2018-02-21T11:02:40.338Z,50.17
2018-02-21T11:05:08.678Z,59.23
2018-02-21T11:07:37.008Z,55.33
2018-02-21T11:10:05.353Z,53.90
2018-02-21T11:12:33.680Z,56.13
2018-02-21T11:15:02.053Z,55.28
2018-02-21T11:17:30.394Z,66.13
2018-02-21T11:19:58.743Z,61.33
2018-02-21T11:22:27.354Z,52.92
2018-02-21T11:24:55.701Z,62.70
2018-02-21T11:27:24.030Z,53.93
2018-02-21T11:29:52.382Z,56.37
2018-02-21T11:32:20.706Z,48.57
2018-02-21T11:34:49.062Z,58.23
2018-02-21T11:37:17.399Z,57.45
2018-02-21T11:39:45.750Z,55.73
2018-02-21T11:42:14.895Z,52.13
2018-02-21T11:44:43.291Z,54.57
2018-02-21T11:47:11.643Z,57.33
2018-02-21T11:49:39.994Z,49.53
2018-02-21T11:52:08.317Z,47.73
2018-02-21T11:54:36.665Z,59.50
2018-02-21T11:57:04.992Z,51.00
2018-02-21T11:59:33.346Z,53.20
2018-02-21T12:02:01.691Z,53.60
2018-02-21T12:04:30.039Z,47.40
2018-02-21T12:06:58.367Z,53.10
2018-02-21T12:09:26.713Z,56.22
2018-02-21T12:11:55.043Z,48.38
2018-02-21T12:14:23.393Z,56.70
2018-02-21T12:16:51.734Z,45.80
2018-02-21T12:19:20.201Z,51.70
2018-02-21T12:21:48.538Z,53.13
2018-02-21T12:24:16.877Z,48.33
2018-02-21T12:26:45.214Z,63.07
2018-02-21T12:29:13.557Z,43.90
2018-02-21T12:31:41.895Z,42.97
2018-02-21T12:34:10.234Z,46.87
2018-02-21T12:36:38.566Z,43.83
2018-02-21T12:39:12.647Z,42.40
2018-02-21T12:41:42.910Z,41.53
2018-02-21T12:44:11.274Z,43.10
2018-02-21T12:46:39.597Z,52.20
2018-02-21T12:49:07.946Z,42.58
2018-02-21T12:51:36.460Z,48.10
2018-02-21T12:54:04.816Z,39.87
2018-02-21T12:56:33.143Z,42.38
2018-02-21T12:59:01.481Z,39.93
2018-02-21T13:01:29.848Z,42.17
2018-02-21T13:03:58.165Z,39.78
2018-02-21T13:06:26.509Z,39.70
2018-02-21T13:08:54.838Z,40.70
2018-02-21T13:11:23.194Z,39.53
2018-02-21T13:13:51.573Z,37.38
2018-02-21T13:16:19.910Z,40.23
2018-02-21T13:18:48.244Z,40.90
2018-02-21T13:21:16.659Z,35.33
2018-02-21T13:23:44.954Z,38.97
2018-02-21T13:26:13.310Z,38.93
2018-02-21T13:28:41.641Z,39.87
2018-02-21T13:31:10.007Z,40.55
2018-02-21T13:33:38.342Z,44.20
2018-02-21T13:36:06.694Z,43.50
2018-02-21T13:38:35.035Z,40.10
2018-02-21T13:41:03.383Z,45.10
2018-02-21T13:43:31.834Z,46.20
2018-02-21T13:46:00.195Z,41.93
2018-02-21T13:48:28.525Z,42.47
2018-02-21T13:50:56.879Z,40.43
2018-02-21T13:53:25.205Z,36.72
2018-02-21T13:55:53.553Z,40.07
2018-02-21T13:58:21.887Z,38.43
2018-02-21T14:00:50.239Z,42.57
2018-02-21T14:03:18.564Z,45.55
2018-02-21T14:05:46.912Z,42.60
2018-02-21T14:08:15.247Z,42.07
2018-02-21T14:10:43.593Z,38.90
2018-02-21T14:13:11.933Z,33.37
2018-02-21T14:15:40.305Z,38.73
2018-02-21T14:18:08.636Z,35.73
2018-02-21T14:20:36.986Z,44.27
2018-02-21T14:23:05.358Z,47.73
2018-02-21T14:25:33.804Z,33.10
2018-02-21T14:28:02.174Z,35.50
2018-02-21T14:30:30.593Z,34.50
2018-02-21T14:32:58.949Z,36.30
2018-02-21T14:35:27.439Z,38.43
2018-02-21T14:37:55.813Z,41.95
2018-02-21T14:40:24.436Z,40.22
2018-02-21T14:42:52.778Z,55.30
2018-02-21T14:45:21.723Z,48.43
2018-02-21T14:47:51.853Z,37.13
2018-02-21T14:50:20.261Z,40.57
2018-02-21T14:52:48.611Z,48.13
2018-02-21T14:55:17.127Z,30.77
2018-02-21T14:57:45.451Z,36.60
2018-02-21T15:00:13.818Z,42.30
2018-02-21T15:02:42.557Z,32.13
2018-02-21T15:05:10.861Z,31.13
2018-02-21T15:07:39.359Z,37.90
2018-02-21T15:10:07.687Z,39.33
2018-02-21T15:12:36.225Z,31.90
2018-02-21T15:15:04.558Z,30.27
2018-02-21T15:17:32.939Z,29.60
2018-02-21T15:20:01.271Z,35.05
2018-02-21T15:22:29.622Z,30.33
2018-02-21T15:24:57.947Z,32.60
2018-02-21T15:27:26.303Z,34.00
2018-02-21T15:29:54.692Z,33.60
2018-02-21T15:32:23.257Z,33.10
2018-02-21T15:34:51.610Z,36.40
2018-02-21T15:37:19.966Z,36.40
2018-02-21T15:39:49.425Z,48.47
2018-02-21T15:42:19.260Z,34.70
2018-02-21T15:44:48.081Z,35.63
2018-02-21T15:47:16.913Z,29.73
2018-02-21T15:49:46.403Z,28.40
2018-02-21T15:52:15.950Z,42.13
2018-02-21T15:54:45.599Z,28.57
2018-02-21T15:57:14.327Z,37.23
2018-02-21T15:59:44.129Z,31.33
2018-02-21T16:02:12.925Z,29.77
2018-02-21T16:04:41.609Z,33.73
2018-02-21T16:07:11.218Z,31.50
2018-02-21T16:09:40.413Z,36.17
2018-02-21T16:12:09.814Z,32.50
2018-02-21T16:14:38.605Z,27.80
2018-02-21T16:17:07.413Z,32.30
2018-02-21T16:19:36.276Z,32.80
2018-02-21T16:22:05.081Z,33.50
2018-02-21T16:24:33.747Z,33.73
2018-02-21T16:27:02.601Z,28.93
2018-02-21T16:29:31.423Z,33.03
2018-02-21T16:32:01.210Z,31.60
2018-02-21T16:34:30.122Z,29.00
2018-02-21T16:36:59.809Z,35.90
2018-02-21T16:39:28.743Z,44.73
2018-02-21T16:41:57.712Z,31.47
2018-02-21T16:44:27.517Z,30.40
2018-02-21T16:46:56.899Z,35.28
2018-02-21T16:49:25.807Z,34.87
2018-02-21T16:51:54.929Z,36.30
2018-02-21T16:54:23.881Z,35.90
2018-02-21T16:56:52.799Z,34.67
2018-02-21T16:59:21.774Z,33.73
2018-02-21T17:01:50.875Z,31.33
2018-02-21T17:04:19.410Z,36.30
2018-02-21T17:06:47.757Z,34.95
2018-02-21T17:09:16.100Z,42.70
2018-02-21T17:11:44.487Z,38.37
2018-02-21T17:14:12.807Z,32.70
2018-02-21T17:16:41.906Z,42.65
2018-02-21T17:19:10.241Z,42.93
2018-02-21T17:21:38.653Z,34.73
2018-02-21T17:24:07.062Z,35.87
2018-02-21T17:26:35.514Z,32.17
2018-02-21T17:29:03.866Z,46.33
2018-02-21T17:31:32.191Z,39.53
2018-02-21T17:34:00.893Z,36.43
2018-02-21T17:36:29.238Z,32.10
2018-02-21T17:38:57.581Z,34.60
2018-02-21T17:41:31.650Z,32.87
2018-02-21T17:44:00.022Z,28.03
2018-02-21T17:46:28.482Z,31.83
2018-02-21T17:48:56.850Z,30.40
2018-02-21T17:51:25.173Z,30.53
2018-02-21T17:53:53.598Z,40.65
2018-02-21T17:56:21.933Z,33.00
2018-02-21T17:58:50.296Z,36.00
2018-02-21T18:01:18.611Z,31.93
2018-02-21T18:03:47.018Z,31.67
2018-02-21T18:06:15.358Z,29.23
2018-02-21T18:08:43.766Z,38.63
2018-02-21T18:11:12.098Z,29.60
2018-02-21T18:13:40.469Z,31.98
2018-02-21T18:16:08.789Z,34.70
2018-02-21T18:18:37.138Z,35.33
2018-02-21T18:21:05.478Z,35.93
2018-02-21T18:23:33.862Z,37.55
2018-02-21T18:26:02.250Z,30.07
2018-02-21T18:28:30.679Z,36.53
2018-02-21T18:30:59.024Z,32.97
2018-02-21T18:33:27.401Z,33.67
2018-02-21T18:35:56.704Z,34.65
2018-02-21T18:38:25.067Z,33.37
2018-02-21T18:40:53.486Z,37.27
2018-02-21T18:43:21.846Z,40.90
2018-02-21T18:45:50.197Z,33.10
2018-02-21T18:48:18.590Z,33.43
2018-02-21T18:50:46.948Z,31.97
2018-02-21T18:53:15.365Z,33.47
2018-02-21T18:55:43.783Z,43.85
2018-02-21T18:58:12.276Z,39.77
2018-02-21T19:00:40.635Z,37.65
2018-02-21T19:03:09.083Z,38.40
2018-02-21T19:05:37.412Z,38.53
2018-02-21T19:08:05.889Z,32.17
2018-02-21T19:10:34.313Z,38.10
2018-02-21T19:13:02.684Z,30.07
2018-02-21T19:15:31.069Z,30.63
2018-02-21T19:17:59.425Z,32.17
2018-02-21T19:20:27.787Z,34.23
2018-02-21T19:22:56.227Z,30.57
2018-02-21T19:25:24.643Z,38.08
2018-02-21T19:27:53.032Z,38.77
2018-02-21T19:30:21.442Z,32.47
2018-02-21T19:32:49.814Z,35.67
2018-02-21T19:35:18.201Z,35.23
2018-02-21T19:37:46.609Z,33.67
2018-02-21T19:40:15.016Z,31.10
2018-02-21T19:42:43.402Z,33.60
2018-02-21T19:45:12.007Z,36.63
2018-02-21T19:47:40.424Z,39.37
2018-02-21T19:50:08.788Z,33.40
2018-02-21T19:52:37.111Z,32.80
2018-02-21T19:55:05.522Z,33.07
2018-02-21T19:57:33.900Z,35.50
2018-02-21T20:00:02.239Z,38.63
2018-02-21T20:02:30.589Z,37.17
2018-02-21T20:04:58.946Z,35.60
2018-02-21T20:07:27.266Z,31.97
2018-02-21T20:09:55.673Z,36.35
2018-02-21T20:12:24.057Z,32.10
2018-02-21T20:14:52.436Z,43.47
2018-02-21T20:17:20.834Z,45.47
2018-02-21T20:19:49.296Z,36.15
2018-02-21T20:22:17.872Z,36.37
2018-02-21T20:24:46.298Z,31.77
2018-02-21T20:27:14.622Z,39.27
2018-02-21T20:29:43.006Z,35.00
2018-02-21T20:32:11.378Z,37.03
2018-02-21T20:34:39.782Z,38.73
2018-02-21T20:37:08.134Z,39.20
2018-02-21T20:39:36.496Z,34.87
2018-02-21T20:42:04.822Z,35.80
2018-02-21T20:44:33.266Z,32.77
2018-02-21T20:47:02.521Z,37.10
2018-02-21T20:49:30.898Z,38.23
2018-02-21T20:51:59.318Z,29.70
2018-02-21T20:54:27.697Z,32.37
2018-02-21T20:56:56.179Z,31.27
2018-02-21T20:59:24.533Z,31.80
2018-02-21T21:01:52.926Z,33.17
2018-02-21T21:04:21.310Z,32.77
2018-02-21T21:06:53.067Z,35.88
2018-02-21T21:09:21.513Z,33.60
2018-02-21T21:11:49.850Z,34.37
2018-02-21T21:14:18.198Z,32.20
2018-02-21T21:16:46.530Z,31.02
2018-02-21T21:19:15.418Z,31.02
2018-02-21T21:21:43.749Z,33.00
2018-02-21T21:24:12.217Z,32.83
2018-02-21T21:26:40.543Z,28.90
2018-02-21T21:29:08.965Z,34.35
2018-02-21T21:31:37.306Z,37.47
2018-02-21T21:34:05.727Z,32.67
2018-02-21T21:36:35.002Z,34.20
2018-02-21T21:39:03.334Z,33.70
2018-02-21T21:41:31.693Z,34.30
2018-02-21T21:44:00.018Z,33.47
2018-02-21T21:46:28.421Z,37.50
2018-02-21T21:48:56.808Z,24.73
2018-02-21T21:51:25.198Z,39.67
2018-02-21T21:53:53.530Z,26.70
2018-02-21T21:56:21.885Z,31.95
2018-02-21T21:58:50.217Z,42.10
2018-02-21T22:01:18.578Z,31.30
2018-02-21T22:03:46.962Z,34.00
2018-02-21T22:06:15.321Z,29.60
2018-02-21T22:08:43.651Z,32.33
2018-02-21T22:11:11.993Z,31.10
2018-02-21T22:13:40.325Z,34.10
2018-02-21T22:16:08.677Z,36.40
2018-02-21T22:18:37.473Z,30.62
2018-02-21T22:21:05.813Z,29.57
2018-02-21T22:23:34.145Z,26.20
2018-02-21T22:26:02.493Z,40.50
2018-02-21T22:28:30.845Z,36.42
2018-02-21T22:30:59.236Z,29.80
2018-02-21T22:33:27.559Z,31.10
2018-02-21T22:35:55.971Z,27.85
2018-02-21T22:38:24.295Z,35.42
2018-02-21T22:40:52.638Z,28.65
2018-02-21T22:43:20.994Z,28.17
2018-02-21T22:45:49.382Z,31.25
2018-02-21T22:48:17.705Z,34.90
2018-02-21T22:50:46.058Z,33.47
2018-02-21T22:53:14.389Z,38.85
2018-02-21T22:55:42.782Z,30.30
2018-02-21T22:58:11.110Z,30.27
2018-02-21T23:00:39.534Z,30.62
2018-02-21T23:03:07.909Z,30.77
2018-02-21T23:05:36.254Z,32.20
2018-02-21T23:08:04.666Z,36.55
2018-02-21T23:10:33.050Z,35.22
2018-02-21T23:13:01.373Z,37.60
2018-02-21T23:15:29.737Z,31.98
2018-02-21T23:17:58.061Z,33.05
2018-02-21T23:20:26.405Z,30.30
2018-02-21T23:22:54.730Z,42.72
2018-02-21T23:25:23.102Z,32.10
2018-02-21T23:27:51.430Z,29.45
2018-02-21T23:30:19.777Z,32.85
2018-02-21T23:32:48.135Z,34.78
2018-02-21T23:35:16.510Z,29.30
2018-02-21T23:37:44.886Z,28.62
2018-02-21T23:40:13.220Z,36.03
2018-02-21T23:42:41.561Z,34.85
2018-02-21T23:45:09.885Z,39.05
2018-02-21T23:47:38.295Z,36.38
2018-02-21T23:50:06.625Z,28.35
2018-02-21T23:52:34.974Z,26.48
2018-02-21T23:55:03.320Z,29.58
2018-02-21T23:57:31.701Z,36.88
